sensor_id;sensor_type;location;lat;lon;timestamp;temperature;humidity
2523;DHT22;1272;53.332;9.860;2023-02-28T00:02:16;1.70;10.20
2523;DHT22;1272;53.332;9.860;2023-02-28T00:04:43;1.70;85.30
2523;DHT22;1272;53.332;9.860;2023-02-28T00:07:09;1.70;99.90
2523;DHT22;1272;53.332;9.860;2023-02-28T00:09:35;1.60;99.90
2523;DHT22;1272;53.332;9.860;2023-02-28T00:12:00;1.60;99.90
2523;DHT22;1272;53.332;9.860;2023-02-28T00:14:30;1.60;99.90
2523;DHT22;1272;53.332;9.860;2023-02-28T00:16:56;1.60;99.90
2523;DHT22;1272;53.332;9.860;2023-02-28T00:19:21;1.60;99.90
2523;DHT22;1272;53.332;9.860;2023-02-28T00:21:47;1.60;99.90
2523;DHT22;1272;53.332;9.860;2023-02-28T00:24:13;1.60;99.90
2523;DHT22;1272;53.332;9.860;2023-02-28T00:26:38;1.60;99.90
2523;DHT22;1272;53.332;9.860;2023-02-28T00:29:04;1.50;99.90
2523;DHT22;1272;53.332;9.860;2023-02-28T00:31:30;1.40;99.90
2523;DHT22;1272;53.332;9.860;2023-02-28T00:33:55;1.30;99.90
2523;DHT22;1272;53.332;9.860;2023-02-28T00:36:21;1.30;99.90
2523;DHT22;1272;53.332;9.860;2023-02-28T00:38:46;1.20;99.90
2523;DHT22;1272;53.332;9.860;2023-02-28T00:41:12;1.10;99.90
2523;DHT22;1272;53.332;9.860;2023-02-28T00:43:39;1.10;99.90
2523;DHT22;1272;53.332;9.860;2023-02-28T00:46:05;1.00;99.90
2523;DHT22;1272;53.332;9.860;2023-02-28T00:48:31;1.00;99.90
2523;DHT22;1272;53.332;9.860;2023-02-28T00:50:57;0.90;99.90
2523;DHT22;1272;53.332;9.860;2023-02-28T00:53:23;0.80;1.00
2523;DHT22;1272;53.332;9.860;2023-02-28T00:55:49;0.80;1.00
2523;DHT22;1272;53.332;9.860;2023-02-28T00:58:15;0.70;1.00
2523;DHT22;1272;53.332;9.860;2023-02-28T01:00:41;0.60;1.00
2523;DHT22;1272;53.332;9.860;2023-02-28T01:03:06;0.60;1.00
2523;DHT22;1272;53.332;9.860;2023-02-28T01:05:32;0.60;1.00
2523;DHT22;1272;53.332;9.860;2023-02-28T01:07:58;0.50;1.00
2523;DHT22;1272;53.332;9.860;2023-02-28T01:10:25;0.50;1.00
2523;DHT22;1272;53.332;9.860;2023-02-28T01:12:50;0.50;1.00
2523;DHT22;1272;53.332;9.860;2023-02-28T01:15:16;0.40;1.00
2523;DHT22;1272;53.332;9.860;2023-02-28T01:17:42;0.40;1.00
2523;DHT22;1272;53.332;9.860;2023-02-28T01:20:08;0.40;1.00
2523;DHT22;1272;53.332;9.860;2023-02-28T01:22:35;0.40;1.00
2523;DHT22;1272;53.332;9.860;2023-02-28T01:25:00;0.30;1.00
2523;DHT22;1272;53.332;9.860;2023-02-28T01:27:26;0.20;1.00
2523;DHT22;1272;53.332;9.860;2023-02-28T01:29:52;0.20;1.00
2523;DHT22;1272;53.332;9.860;2023-02-28T01:32:18;0.10;1.00
2523;DHT22;1272;53.332;9.860;2023-02-28T01:34:43;0.10;1.00
2523;DHT22;1272;53.332;9.860;2023-02-28T01:37:09;0.00;1.00
2523;DHT22;1272;53.332;9.860;2023-02-28T01:39:35;0.00;1.00
2523;DHT22;1272;53.332;9.860;2023-02-28T01:42:00;-0.10;1.00
2523;DHT22;1272;53.332;9.860;2023-02-28T01:45:02;-0.30;1.00
2523;DHT22;1272;53.332;9.860;2023-02-28T01:47:38;-0.30;69.60
2523;DHT22;1272;53.332;9.860;2023-02-28T01:50:12;-0.30;99.90
2523;DHT22;1272;53.332;9.860;2023-02-28T01:52:40;-0.40;99.90
2523;DHT22;1272;53.332;9.860;2023-02-28T01:55:07;-0.40;99.90
2523;DHT22;1272;53.332;9.860;2023-02-28T01:57:36;-0.40;99.90
2523;DHT22;1272;53.332;9.860;2023-02-28T02:00:16;-0.40;99.90
2523;DHT22;1272;53.332;9.860;2023-02-28T02:02:46;-0.40;99.90
2523;DHT22;1272;53.332;9.860;2023-02-28T02:05:17;-0.40;99.90
2523;DHT22;1272;53.332;9.860;2023-02-28T02:07:45;-0.40;99.90
2523;DHT22;1272;53.332;9.860;2023-02-28T02:18:09;-0.50;99.90
2523;DHT22;1272;53.332;9.860;2023-02-28T02:26:37;-0.70;99.90
2523;DHT22;1272;53.332;9.860;2023-02-28T02:29:18;-0.70;99.90
2523;DHT22;1272;53.332;9.860;2023-02-28T02:31:55;-0.80;99.90
2523;DHT22;1272;53.332;9.860;2023-02-28T02:34:58;-0.80;99.90
2523;DHT22;1272;53.332;9.860;2023-02-28T02:37:40;-0.80;99.90
2523;DHT22;1272;53.332;9.860;2023-02-28T02:40:19;-0.90;99.90
2523;DHT22;1272;53.332;9.860;2023-02-28T02:42:50;-0.90;99.90
2523;DHT22;1272;53.332;9.860;2023-02-28T02:45:28;-1.00;99.90
2523;DHT22;1272;53.332;9.860;2023-02-28T02:48:02;-0.90;99.90
2523;DHT22;1272;53.332;9.860;2023-02-28T02:50:36;-1.00;99.90
2523;DHT22;1272;53.332;9.860;2023-02-28T02:53:04;-1.00;99.90
2523;DHT22;1272;53.332;9.860;2023-02-28T02:55:34;-1.10;99.90
2523;DHT22;1272;53.332;9.860;2023-02-28T02:58:04;-1.00;99.90
2523;DHT22;1272;53.332;9.860;2023-02-28T03:00:38;-1.10;99.90
2523;DHT22;1272;53.332;9.860;2023-02-28T03:03:05;-1.10;99.90
2523;DHT22;1272;53.332;9.860;2023-02-28T03:05:48;-1.10;99.90
2523;DHT22;1272;53.332;9.860;2023-02-28T03:08:14;-1.10;99.90
2523;DHT22;1272;53.332;9.860;2023-02-28T03:10:45;-1.00;99.90
2523;DHT22;1272;53.332;9.860;2023-02-28T03:18:44;-1.00;99.90
2523;DHT22;1272;53.332;9.860;2023-02-28T03:25:06;-1.20;99.90
2523;DHT22;1272;53.332;9.860;2023-02-28T03:27:34;-1.20;99.90
2523;DHT22;1272;53.332;9.860;2023-02-28T03:30:31;-1.20;99.90
2523;DHT22;1272;53.332;9.860;2023-02-28T03:33:14;-1.30;99.90
2523;DHT22;1272;53.332;9.860;2023-02-28T03:35:57;-1.40;99.90
2523;DHT22;1272;53.332;9.860;2023-02-28T03:41:00;-1.40;99.90
2523;DHT22;1272;53.332;9.860;2023-02-28T03:43:31;-1.40;99.90
2523;DHT22;1272;53.332;9.860;2023-02-28T03:46:00;-1.50;99.90
2523;DHT22;1272;53.332;9.860;2023-02-28T03:48:47;-1.50;99.90
2523;DHT22;1272;53.332;9.860;2023-02-28T03:51:16;-1.60;99.90
2523;DHT22;1272;53.332;9.860;2023-02-28T03:53:57;-1.60;99.90
2523;DHT22;1272;53.332;9.860;2023-02-28T03:56:30;-1.60;99.90
2523;DHT22;1272;53.332;9.860;2023-02-28T03:59:39;-1.50;99.90
2523;DHT22;1272;53.332;9.860;2023-02-28T04:02:03;-1.50;99.90
2523;DHT22;1272;53.332;9.860;2023-02-28T04:04:29;-1.50;99.90
2523;DHT22;1272;53.332;9.860;2023-02-28T04:07:07;-1.60;99.90
2523;DHT22;1272;53.332;9.860;2023-02-28T04:09:34;-1.60;99.90
2523;DHT22;1272;53.332;9.860;2023-02-28T04:12:00;-1.60;99.90
2523;DHT22;1272;53.332;9.860;2023-02-28T04:14:26;-1.60;99.90
2523;DHT22;1272;53.332;9.860;2023-02-28T04:16:52;-1.60;99.90
2523;DHT22;1272;53.332;9.860;2023-02-28T04:19:18;-1.60;99.90
2523;DHT22;1272;53.332;9.860;2023-02-28T04:21:49;-1.60;99.90
2523;DHT22;1272;53.332;9.860;2023-02-28T04:24:17;-1.70;99.90
2523;DHT22;1272;53.332;9.860;2023-02-28T04:26:46;-1.70;99.90
2523;DHT22;1272;53.332;9.860;2023-02-28T04:29:14;-1.70;99.90
2523;DHT22;1272;53.332;9.860;2023-02-28T04:31:43;-1.80;99.90
2523;DHT22;1272;53.332;9.860;2023-02-28T04:34:09;-1.80;99.90
2523;DHT22;1272;53.332;9.860;2023-02-28T04:36:34;-1.80;99.90
2523;DHT22;1272;53.332;9.860;2023-02-28T04:39:00;-1.80;99.90
2523;DHT22;1272;53.332;9.860;2023-02-28T04:41:26;-1.90;99.90
2523;DHT22;1272;53.332;9.860;2023-02-28T04:43:52;-1.90;99.90
2523;DHT22;1272;53.332;9.860;2023-02-28T04:46:18;-1.90;99.90
2523;DHT22;1272;53.332;9.860;2023-02-28T04:48:44;-1.90;99.90
2523;DHT22;1272;53.332;9.860;2023-02-28T04:51:12;-1.90;99.90
2523;DHT22;1272;53.332;9.860;2023-02-28T04:53:40;-1.90;99.90
2523;DHT22;1272;53.332;9.860;2023-02-28T04:56:12;-2.00;99.90
2523;DHT22;1272;53.332;9.860;2023-02-28T04:58:38;-2.00;99.90
2523;DHT22;1272;53.332;9.860;2023-02-28T05:01:26;-2.00;99.90
2523;DHT22;1272;53.332;9.860;2023-02-28T05:03:54;-2.10;99.90
2523;DHT22;1272;53.332;9.860;2023-02-28T05:06:21;-2.10;99.90
2523;DHT22;1272;53.332;9.860;2023-02-28T05:08:49;-2.10;99.90
2523;DHT22;1272;53.332;9.860;2023-02-28T05:11:26;-2.20;99.90
2523;DHT22;1272;53.332;9.860;2023-02-28T05:13:52;-2.20;99.90
2523;DHT22;1272;53.332;9.860;2023-02-28T05:16:19;-2.20;99.90
2523;DHT22;1272;53.332;9.860;2023-02-28T05:18:46;-2.20;99.90
2523;DHT22;1272;53.332;9.860;2023-02-28T05:21:38;-2.30;99.90
2523;DHT22;1272;53.332;9.860;2023-02-28T05:24:07;-2.30;99.90
2523;DHT22;1272;53.332;9.860;2023-02-28T05:26:38;-2.30;99.90
2523;DHT22;1272;53.332;9.860;2023-02-28T05:29:04;-2.30;99.90
2523;DHT22;1272;53.332;9.860;2023-02-28T05:31:30;-2.30;99.90
2523;DHT22;1272;53.332;9.860;2023-02-28T05:33:56;-2.30;99.90
2523;DHT22;1272;53.332;9.860;2023-02-28T05:36:22;-2.40;99.90
2523;DHT22;1272;53.332;9.860;2023-02-28T05:38:48;-2.40;99.90
2523;DHT22;1272;53.332;9.860;2023-02-28T05:41:15;-2.40;99.90
2523;DHT22;1272;53.332;9.860;2023-02-28T05:43:40;-2.50;99.90
2523;DHT22;1272;53.332;9.860;2023-02-28T05:46:08;-2.50;99.90
2523;DHT22;1272;53.332;9.860;2023-02-28T05:48:35;-2.50;99.90
2523;DHT22;1272;53.332;9.860;2023-02-28T05:51:02;-2.60;99.90
2523;DHT22;1272;53.332;9.860;2023-02-28T05:53:28;-2.60;99.90
2523;DHT22;1272;53.332;9.860;2023-02-28T05:55:54;-2.50;99.90
2523;DHT22;1272;53.332;9.860;2023-02-28T05:58:20;-2.60;99.90
2523;DHT22;1272;53.332;9.860;2023-02-28T06:00:46;-2.60;99.90
2523;DHT22;1272;53.332;9.860;2023-02-28T06:03:12;-2.60;99.90
2523;DHT22;1272;53.332;9.860;2023-02-28T06:05:38;-2.60;99.90
2523;DHT22;1272;53.332;9.860;2023-02-28T06:08:04;-2.60;99.90
2523;DHT22;1272;53.332;9.860;2023-02-28T06:10:35;-2.60;99.90
2523;DHT22;1272;53.332;9.860;2023-02-28T06:13:02;-2.60;99.90
2523;DHT22;1272;53.332;9.860;2023-02-28T06:15:28;-2.70;99.90
2523;DHT22;1272;53.332;9.860;2023-02-28T06:17:55;-2.60;99.90
2523;DHT22;1272;53.332;9.860;2023-02-28T06:20:23;-2.70;99.90
2523;DHT22;1272;53.332;9.860;2023-02-28T06:22:49;-2.70;99.90
2523;DHT22;1272;53.332;9.860;2023-02-28T06:25:16;-2.70;99.90
2523;DHT22;1272;53.332;9.860;2023-02-28T06:27:42;-2.70;99.90
2523;DHT22;1272;53.332;9.860;2023-02-28T06:30:09;-2.70;99.90
2523;DHT22;1272;53.332;9.860;2023-02-28T06:32:35;-2.70;99.90
2523;DHT22;1272;53.332;9.860;2023-02-28T06:35:02;-2.70;99.90
2523;DHT22;1272;53.332;9.860;2023-02-28T06:37:27;-2.70;99.90
2523;DHT22;1272;53.332;9.860;2023-02-28T06:39:54;-2.70;99.90
2523;DHT22;1272;53.332;9.860;2023-02-28T06:42:22;-2.70;99.90
2523;DHT22;1272;53.332;9.860;2023-02-28T06:44:50;-2.80;99.90
2523;DHT22;1272;53.332;9.860;2023-02-28T06:47:16;-2.70;99.90
2523;DHT22;1272;53.332;9.860;2023-02-28T06:49:42;-2.80;99.90
2523;DHT22;1272;53.332;9.860;2023-02-28T06:52:07;-2.70;99.90
2523;DHT22;1272;53.332;9.860;2023-02-28T06:54:36;-2.80;99.90
2523;DHT22;1272;53.332;9.860;2023-02-28T06:57:02;-2.70;99.90
2523;DHT22;1272;53.332;9.860;2023-02-28T06:59:28;-2.70;99.90
2523;DHT22;1272;53.332;9.860;2023-02-28T07:01:54;-2.70;99.90
2523;DHT22;1272;53.332;9.860;2023-02-28T07:04:21;-2.70;99.90
2523;DHT22;1272;53.332;9.860;2023-02-28T07:06:47;-2.70;99.90
2523;DHT22;1272;53.332;9.860;2023-02-28T07:09:12;-2.70;99.90
2523;DHT22;1272;53.332;9.860;2023-02-28T07:11:39;-2.60;99.90
2523;DHT22;1272;53.332;9.860;2023-02-28T07:14:06;-2.60;99.90
2523;DHT22;1272;53.332;9.860;2023-02-28T07:16:32;-2.60;99.90
2523;DHT22;1272;53.332;9.860;2023-02-28T07:18:58;-2.50;99.90
2523;DHT22;1272;53.332;9.860;2023-02-28T07:21:23;-2.50;99.90
2523;DHT22;1272;53.332;9.860;2023-02-28T07:23:49;-2.50;99.90
2523;DHT22;1272;53.332;9.860;2023-02-28T07:26:17;-2.40;99.90
2523;DHT22;1272;53.332;9.860;2023-02-28T07:28:45;-2.40;99.90
2523;DHT22;1272;53.332;9.860;2023-02-28T07:31:13;-2.30;99.90
2523;DHT22;1272;53.332;9.860;2023-02-28T07:33:43;-2.30;99.90
2523;DHT22;1272;53.332;9.860;2023-02-28T07:36:11;-2.30;99.90
2523;DHT22;1272;53.332;9.860;2023-02-28T07:38:47;-2.20;99.90
2523;DHT22;1272;53.332;9.860;2023-02-28T07:41:14;-2.20;99.90
2523;DHT22;1272;53.332;9.860;2023-02-28T07:43:44;-2.10;99.90
2523;DHT22;1272;53.332;9.860;2023-02-28T07:46:12;-2.10;99.90
2523;DHT22;1272;53.332;9.860;2023-02-28T07:48:40;-2.00;99.90
2523;DHT22;1272;53.332;9.860;2023-02-28T07:51:06;-2.00;99.90
2523;DHT22;1272;53.332;9.860;2023-02-28T07:53:32;-1.90;99.90
2523;DHT22;1272;53.332;9.860;2023-02-28T07:56:00;-1.90;99.90
2523;DHT22;1272;53.332;9.860;2023-02-28T07:58:27;-1.80;99.90
2523;DHT22;1272;53.332;9.860;2023-02-28T08:00:53;-1.70;99.90
2523;DHT22;1272;53.332;9.860;2023-02-28T08:03:20;-1.60;99.90
2523;DHT22;1272;53.332;9.860;2023-02-28T08:05:50;-1.50;99.90
2523;DHT22;1272;53.332;9.860;2023-02-28T08:08:17;-1.50;99.90
2523;DHT22;1272;53.332;9.860;2023-02-28T08:10:43;-1.40;99.90
2523;DHT22;1272;53.332;9.860;2023-02-28T08:13:09;-1.40;99.90
2523;DHT22;1272;53.332;9.860;2023-02-28T08:15:35;-1.30;99.90
2523;DHT22;1272;53.332;9.860;2023-02-28T08:18:01;-1.20;99.90
2523;DHT22;1272;53.332;9.860;2023-02-28T08:20:27;-1.20;99.90
2523;DHT22;1272;53.332;9.860;2023-02-28T08:22:53;-1.20;99.90
2523;DHT22;1272;53.332;9.860;2023-02-28T08:25:19;-1.10;99.90
2523;DHT22;1272;53.332;9.860;2023-02-28T08:27:53;-1.00;99.90
2523;DHT22;1272;53.332;9.860;2023-02-28T08:30:19;-0.90;99.90
2523;DHT22;1272;53.332;9.860;2023-02-28T08:32:45;-0.80;99.90
2523;DHT22;1272;53.332;9.860;2023-02-28T08:35:11;-0.70;99.90
2523;DHT22;1272;53.332;9.860;2023-02-28T08:37:36;-0.70;99.90
2523;DHT22;1272;53.332;9.860;2023-02-28T08:40:02;-0.60;99.90
2523;DHT22;1272;53.332;9.860;2023-02-28T08:42:29;-0.50;99.90
2523;DHT22;1272;53.332;9.860;2023-02-28T08:44:55;-0.40;99.90
2523;DHT22;1272;53.332;9.860;2023-02-28T08:47:20;-0.30;99.90
2523;DHT22;1272;53.332;9.860;2023-02-28T08:49:46;-0.20;99.90
2523;DHT22;1272;53.332;9.860;2023-02-28T08:52:12;-0.10;99.90
2523;DHT22;1272;53.332;9.860;2023-02-28T08:54:37;0.00;99.90
2523;DHT22;1272;53.332;9.860;2023-02-28T08:57:03;0.10;99.90
2523;DHT22;1272;53.332;9.860;2023-02-28T08:59:29;0.20;99.90
2523;DHT22;1272;53.332;9.860;2023-02-28T09:01:55;0.30;99.90
2523;DHT22;1272;53.332;9.860;2023-02-28T09:04:20;0.40;99.90
2523;DHT22;1272;53.332;9.860;2023-02-28T09:06:46;0.50;99.90
2523;DHT22;1272;53.332;9.860;2023-02-28T09:09:14;0.70;99.90
2523;DHT22;1272;53.332;9.860;2023-02-28T09:11:40;0.80;99.90
2523;DHT22;1272;53.332;9.860;2023-02-28T09:14:05;0.90;99.90
2523;DHT22;1272;53.332;9.860;2023-02-28T09:16:38;1.00;99.90
2523;DHT22;1272;53.332;9.860;2023-02-28T09:19:03;1.10;98.20
2523;DHT22;1272;53.332;9.860;2023-02-28T09:21:29;1.20;1.00
2523;DHT22;1272;53.332;9.860;2023-02-28T09:23:55;1.40;1.00
2523;DHT22;1272;53.332;9.860;2023-02-28T09:26:26;1.60;1.00
2523;DHT22;1272;53.332;9.860;2023-02-28T09:28:54;1.70;1.00
2523;DHT22;1272;53.332;9.860;2023-02-28T09:31:26;1.90;1.00
2523;DHT22;1272;53.332;9.860;2023-02-28T09:33:54;2.00;33.80
2523;DHT22;1272;53.332;9.860;2023-02-28T09:36:22;2.10;1.00
2523;DHT22;1272;53.332;9.860;2023-02-28T09:38:48;2.20;1.00
2523;DHT22;1272;53.332;9.860;2023-02-28T09:41:17;2.20;1.00
2523;DHT22;1272;53.332;9.860;2023-02-28T09:43:50;2.30;99.90
2523;DHT22;1272;53.332;9.860;2023-02-28T09:49:24;2.50;99.90
2523;DHT22;1272;53.332;9.860;2023-02-28T09:54:24;2.70;99.90
2523;DHT22;1272;53.332;9.860;2023-02-28T10:05:23;3.40;1.00
2523;DHT22;1272;53.332;9.860;2023-02-28T10:08:17;3.40;1.00
2523;DHT22;1272;53.332;9.860;2023-02-28T10:10:48;3.50;16.90
2523;DHT22;1272;53.332;9.860;2023-02-28T10:16:46;3.70;1.00
2523;DHT22;1272;53.332;9.860;2023-02-28T10:19:35;4.00;1.00
2523;DHT22;1272;53.332;9.860;2023-02-28T10:22:34;4.10;1.00
2523;DHT22;1272;53.332;9.860;2023-02-28T10:25:04;4.40;1.00
2523;DHT22;1272;53.332;9.860;2023-02-28T10:27:31;4.60;99.90
2523;DHT22;1272;53.332;9.860;2023-02-28T10:29:59;4.60;1.00
2523;DHT22;1272;53.332;9.860;2023-02-28T10:32:36;4.80;99.90
2523;DHT22;1272;53.332;9.860;2023-02-28T10:37:30;5.10;99.90
2523;DHT22;1272;53.332;9.860;2023-02-28T10:39:57;5.20;99.90
2523;DHT22;1272;53.332;9.860;2023-02-28T10:42:30;5.30;99.90
2523;DHT22;1272;53.332;9.860;2023-02-28T10:45:14;5.40;99.90
2523;DHT22;1272;53.332;9.860;2023-02-28T10:50:51;5.60;99.90
2523;DHT22;1272;53.332;9.860;2023-02-28T10:58:31;5.80;99.90
2523;DHT22;1272;53.332;9.860;2023-02-28T11:00:59;5.90;99.90
2523;DHT22;1272;53.332;9.860;2023-02-28T11:03:32;5.90;99.90
2523;DHT22;1272;53.332;9.860;2023-02-28T11:06:03;6.10;99.90
2523;DHT22;1272;53.332;9.860;2023-02-28T11:08:30;6.30;99.90
2523;DHT22;1272;53.332;9.860;2023-02-28T11:11:00;6.40;99.90
2523;DHT22;1272;53.332;9.860;2023-02-28T11:13:35;6.50;99.90
2523;DHT22;1272;53.332;9.860;2023-02-28T11:16:06;6.50;99.90
2523;DHT22;1272;53.332;9.860;2023-02-28T11:21:09;6.90;99.90
2523;DHT22;1272;53.332;9.860;2023-02-28T11:23:41;7.00;99.90
2523;DHT22;1272;53.332;9.860;2023-02-28T11:26:07;7.10;99.90
2523;DHT22;1272;53.332;9.860;2023-02-28T11:28:39;7.10;99.90
2523;DHT22;1272;53.332;9.860;2023-02-28T11:31:15;7.30;99.90
2523;DHT22;1272;53.332;9.860;2023-02-28T11:33:53;7.20;99.90
2523;DHT22;1272;53.332;9.860;2023-02-28T11:36:31;7.40;99.90
2523;DHT22;1272;53.332;9.860;2023-02-28T11:39:03;7.50;99.90
2523;DHT22;1272;53.332;9.860;2023-02-28T11:44:34;7.80;99.90
2523;DHT22;1272;53.332;9.860;2023-02-28T11:47:44;7.90;81.70
2523;DHT22;1272;53.332;9.860;2023-02-28T12:01:38;8.40;17.90
2523;DHT22;1272;53.332;9.860;2023-02-28T12:04:33;8.50;24.10
2523;DHT22;1272;53.332;9.860;2023-02-28T12:07:12;8.50;31.60
2523;DHT22;1272;53.332;9.860;2023-02-28T12:13:19;8.70;17.90
2523;DHT22;1272;53.332;9.860;2023-02-28T12:18:33;8.90;5.70
2523;DHT22;1272;53.332;9.860;2023-02-28T12:29:25;9.00;1.00
2523;DHT22;1272;53.332;9.860;2023-02-28T12:32:12;9.10;1.00
2523;DHT22;1272;53.332;9.860;2023-02-28T12:34:44;9.30;1.00
2523;DHT22;1272;53.332;9.860;2023-02-28T12:37:15;9.40;1.00
2523;DHT22;1272;53.332;9.860;2023-02-28T12:39:50;9.50;1.00
2523;DHT22;1272;53.332;9.860;2023-02-28T12:42:28;9.50;1.00
2523;DHT22;1272;53.332;9.860;2023-02-28T12:44:59;9.40;1.00
2523;DHT22;1272;53.332;9.860;2023-02-28T12:47:26;9.40;1.00
2523;DHT22;1272;53.332;9.860;2023-02-28T12:50:07;9.50;1.00
2523;DHT22;1272;53.332;9.860;2023-02-28T12:58:39;9.80;1.00
2523;DHT22;1272;53.332;9.860;2023-02-28T13:10:01;9.60;1.00
2523;DHT22;1272;53.332;9.860;2023-02-28T13:12:28;9.80;1.00
2523;DHT22;1272;53.332;9.860;2023-02-28T13:15:29;9.90;1.00
2523;DHT22;1272;53.332;9.860;2023-02-28T13:17:58;10.00;1.00
2523;DHT22;1272;53.332;9.860;2023-02-28T13:20:34;9.90;1.00
2523;DHT22;1272;53.332;9.860;2023-02-28T13:23:00;10.10;1.00
2523;DHT22;1272;53.332;9.860;2023-02-28T13:28:12;10.10;1.00
2523;DHT22;1272;53.332;9.860;2023-02-28T13:33:35;10.10;1.00
2523;DHT22;1272;53.332;9.860;2023-02-28T13:38:43;10.30;1.00
2523;DHT22;1272;53.332;9.860;2023-02-28T13:49:33;10.60;1.00
2523;DHT22;1272;53.332;9.860;2023-02-28T14:02:57;10.50;1.00
2523;DHT22;1272;53.332;9.860;2023-02-28T14:05:27;10.60;1.00
2523;DHT22;1272;53.332;9.860;2023-02-28T14:07:57;10.80;1.00
2523;DHT22;1272;53.332;9.860;2023-02-28T14:10:25;10.80;1.00
2523;DHT22;1272;53.332;9.860;2023-02-28T14:15:39;10.70;1.00
2523;DHT22;1272;53.332;9.860;2023-02-28T14:18:31;10.70;1.00
2523;DHT22;1272;53.332;9.860;2023-02-28T14:21:03;10.40;1.00
2523;DHT22;1272;53.332;9.860;2023-02-28T14:29:05;10.10;1.00
2523;DHT22;1272;53.332;9.860;2023-02-28T14:31:50;9.90;1.00
2523;DHT22;1272;53.332;9.860;2023-02-28T14:36:48;9.80;1.00
2523;DHT22;1272;53.332;9.860;2023-02-28T14:39:18;10.00;1.00
2523;DHT22;1272;53.332;9.860;2023-02-28T14:41:45;9.70;1.00
2523;DHT22;1272;53.332;9.860;2023-02-28T14:44:18;9.60;1.00
2523;DHT22;1272;53.332;9.860;2023-02-28T14:46:46;9.40;1.00
2523;DHT22;1272;53.332;9.860;2023-02-28T14:49:29;9.50;1.00
2523;DHT22;1272;53.332;9.860;2023-02-28T14:52:26;9.50;1.00
2523;DHT22;1272;53.332;9.860;2023-02-28T14:54:56;9.30;1.00
2523;DHT22;1272;53.332;9.860;2023-02-28T14:57:38;9.30;1.00
2523;DHT22;1272;53.332;9.860;2023-02-28T15:00:15;9.40;1.00
2523;DHT22;1272;53.332;9.860;2023-02-28T15:02:42;9.50;1.00
2523;DHT22;1272;53.332;9.860;2023-02-28T15:07:46;9.20;1.00
2523;DHT22;1272;53.332;9.860;2023-02-28T15:10:24;9.20;1.00
2523;DHT22;1272;53.332;9.860;2023-02-28T15:12:54;9.10;1.00
2523;DHT22;1272;53.332;9.860;2023-02-28T15:15:27;9.10;1.00
2523;DHT22;1272;53.332;9.860;2023-02-28T15:17:59;9.20;1.00
2523;DHT22;1272;53.332;9.860;2023-02-28T15:20:26;9.10;1.00
2523;DHT22;1272;53.332;9.860;2023-02-28T15:22:54;9.00;1.00
2523;DHT22;1272;53.332;9.860;2023-02-28T15:25:22;9.10;1.00
2523;DHT22;1272;53.332;9.860;2023-02-28T15:27:50;8.90;1.00
2523;DHT22;1272;53.332;9.860;2023-02-28T15:30:21;8.90;1.00
2523;DHT22;1272;53.332;9.860;2023-02-28T15:33:04;8.90;1.00
2523;DHT22;1272;53.332;9.860;2023-02-28T15:35:31;8.80;1.00
2523;DHT22;1272;53.332;9.860;2023-02-28T15:38:15;8.60;1.00
2523;DHT22;1272;53.332;9.860;2023-02-28T15:40:43;8.50;1.00
2523;DHT22;1272;53.332;9.860;2023-02-28T15:43:17;8.40;1.00
2523;DHT22;1272;53.332;9.860;2023-02-28T15:45:49;8.10;1.00
2523;DHT22;1272;53.332;9.860;2023-02-28T15:50:42;7.80;1.00
2523;DHT22;1272;53.332;9.860;2023-02-28T15:53:17;7.80;1.00
2523;DHT22;1272;53.332;9.860;2023-02-28T15:55:44;7.80;1.00
2523;DHT22;1272;53.332;9.860;2023-02-28T15:58:12;7.70;1.00
2523;DHT22;1272;53.332;9.860;2023-02-28T16:00:39;7.50;1.00
2523;DHT22;1272;53.332;9.860;2023-02-28T16:03:25;7.40;1.00
2523;DHT22;1272;53.332;9.860;2023-02-28T16:06:26;7.30;1.00
2523;DHT22;1272;53.332;9.860;2023-02-28T16:08:56;7.20;1.00
2523;DHT22;1272;53.332;9.860;2023-02-28T16:11:22;7.10;1.00
2523;DHT22;1272;53.332;9.860;2023-02-28T16:13:48;6.90;1.00
2523;DHT22;1272;53.332;9.860;2023-02-28T16:16:18;6.80;1.00
2523;DHT22;1272;53.332;9.860;2023-02-28T16:18:45;6.70;1.00
2523;DHT22;1272;53.332;9.860;2023-02-28T16:21:10;6.60;1.00
2523;DHT22;1272;53.332;9.860;2023-02-28T16:23:36;6.60;1.00
2523;DHT22;1272;53.332;9.860;2023-02-28T16:26:03;6.50;1.00
2523;DHT22;1272;53.332;9.860;2023-02-28T16:28:33;6.40;1.00
2523;DHT22;1272;53.332;9.860;2023-02-28T16:31:00;6.30;1.00
2523;DHT22;1272;53.332;9.860;2023-02-28T16:33:28;6.20;1.00
2523;DHT22;1272;53.332;9.860;2023-02-28T16:35:54;6.10;1.00
2523;DHT22;1272;53.332;9.860;2023-02-28T16:38:20;5.90;1.00
2523;DHT22;1272;53.332;9.860;2023-02-28T16:40:49;5.70;13.30
2523;DHT22;1272;53.332;9.860;2023-02-28T16:43:18;5.60;27.00
2523;DHT22;1272;53.332;9.860;2023-02-28T16:45:45;5.50;96.60
2523;DHT22;1272;53.332;9.860;2023-02-28T16:48:15;5.40;93.80
2523;DHT22;1272;53.332;9.860;2023-02-28T16:50:44;5.30;99.90
2523;DHT22;1272;53.332;9.860;2023-02-28T16:53:10;5.10;99.90
2523;DHT22;1272;53.332;9.860;2023-02-28T16:55:36;5.00;99.90
2523;DHT22;1272;53.332;9.860;2023-02-28T16:58:03;4.90;99.90
2523;DHT22;1272;53.332;9.860;2023-02-28T17:00:30;4.80;99.90
2523;DHT22;1272;53.332;9.860;2023-02-28T17:02:58;4.70;99.90
2523;DHT22;1272;53.332;9.860;2023-02-28T17:05:25;4.60;99.90
2523;DHT22;1272;53.332;9.860;2023-02-28T17:07:52;4.40;99.90
2523;DHT22;1272;53.332;9.860;2023-02-28T17:10:24;4.30;99.90
2523;DHT22;1272;53.332;9.860;2023-02-28T17:12:52;4.20;99.90
2523;DHT22;1272;53.332;9.860;2023-02-28T17:15:19;4.10;1.00
2523;DHT22;1272;53.332;9.860;2023-02-28T17:17:48;3.90;1.00
2523;DHT22;1272;53.332;9.860;2023-02-28T17:20:21;3.90;1.00
2523;DHT22;1272;53.332;9.860;2023-02-28T17:22:52;3.80;1.00
2523;DHT22;1272;53.332;9.860;2023-02-28T17:25:18;3.70;1.00
2523;DHT22;1272;53.332;9.860;2023-02-28T17:27:44;3.50;1.00
2523;DHT22;1272;53.332;9.860;2023-02-28T17:30:19;3.40;1.00
2523;DHT22;1272;53.332;9.860;2023-02-28T17:32:46;3.30;1.00
2523;DHT22;1272;53.332;9.860;2023-02-28T17:35:12;3.20;1.00
2523;DHT22;1272;53.332;9.860;2023-02-28T17:37:38;3.10;1.00
2523;DHT22;1272;53.332;9.860;2023-02-28T17:40:05;3.00;1.00
2523;DHT22;1272;53.332;9.860;2023-02-28T17:42:31;3.10;1.00
2523;DHT22;1272;53.332;9.860;2023-02-28T17:44:57;3.10;1.00
2523;DHT22;1272;53.332;9.860;2023-02-28T17:47:22;3.00;1.00
2523;DHT22;1272;53.332;9.860;2023-02-28T17:49:48;2.70;1.00
2523;DHT22;1272;53.332;9.860;2023-02-28T17:52:13;2.70;1.00
2523;DHT22;1272;53.332;9.860;2023-02-28T17:54:39;2.70;1.00
2523;DHT22;1272;53.332;9.860;2023-02-28T17:57:08;2.60;1.00
2523;DHT22;1272;53.332;9.860;2023-02-28T17:59:34;2.50;1.00
2523;DHT22;1272;53.332;9.860;2023-02-28T18:02:01;2.40;1.00
2523;DHT22;1272;53.332;9.860;2023-02-28T18:04:26;2.30;1.00
2523;DHT22;1272;53.332;9.860;2023-02-28T18:06:53;2.30;1.00
2523;DHT22;1272;53.332;9.860;2023-02-28T18:09:22;2.20;15.90
2523;DHT22;1272;53.332;9.860;2023-02-28T18:11:49;2.10;12.90
2523;DHT22;1272;53.332;9.860;2023-02-28T18:14:16;2.00;36.10
2523;DHT22;1272;53.332;9.860;2023-02-28T18:16:42;1.90;99.90
2523;DHT22;1272;53.332;9.860;2023-02-28T18:19:09;1.80;99.90
2523;DHT22;1272;53.332;9.860;2023-02-28T18:21:40;1.90;99.90
2523;DHT22;1272;53.332;9.860;2023-02-28T18:24:07;1.90;70.00
2523;DHT22;1272;53.332;9.860;2023-02-28T18:26:33;1.90;58.20
2523;DHT22;1272;53.332;9.860;2023-02-28T18:29:03;1.80;99.90
2523;DHT22;1272;53.332;9.860;2023-02-28T18:31:29;1.80;99.90
2523;DHT22;1272;53.332;9.860;2023-02-28T18:33:57;1.60;99.90
2523;DHT22;1272;53.332;9.860;2023-02-28T18:36:23;1.60;99.90
2523;DHT22;1272;53.332;9.860;2023-02-28T18:38:50;1.50;99.90
2523;DHT22;1272;53.332;9.860;2023-02-28T18:41:17;1.50;99.90
2523;DHT22;1272;53.332;9.860;2023-02-28T18:43:46;1.50;99.90
2523;DHT22;1272;53.332;9.860;2023-02-28T18:46:15;1.50;99.90
2523;DHT22;1272;53.332;9.860;2023-02-28T18:48:41;1.60;99.90
2523;DHT22;1272;53.332;9.860;2023-02-28T18:51:09;1.50;99.90
2523;DHT22;1272;53.332;9.860;2023-02-28T18:53:36;1.50;99.90
2523;DHT22;1272;53.332;9.860;2023-02-28T18:56:06;1.50;99.90
2523;DHT22;1272;53.332;9.860;2023-02-28T18:58:32;1.50;99.90